sensor_id;sensor_type;location;lat;lon;timestamp;P1;durP1;ratioP1;P2;durP2;ratioP2
72105;SDS011;59975;47.646;18.318;2023-05-07T00:01:36;15.73;;;9.73;;
72105;SDS011;59975;47.646;18.318;2023-05-07T00:04:01;20.42;;;10.68;;
72105;SDS011;59975;47.646;18.318;2023-05-07T00:06:28;16.20;;;9.48;;
72105;SDS011;59975;47.646;18.318;2023-05-07T00:08:54;14.52;;;8.32;;
72105;SDS011;59975;47.646;18.318;2023-05-07T00:11:21;15.77;;;8.90;;
72105;SDS011;59975;47.646;18.318;2023-05-07T00:13:47;17.97;;;8.67;;
72105;SDS011;59975;47.646;18.318;2023-05-07T00:16:13;13.90;;;8.77;;
72105;SDS011;59975;47.646;18.318;2023-05-07T00:18:39;15.18;;;9.27;;
72105;SDS011;59975;47.646;18.318;2023-05-07T00:21:04;15.30;;;9.13;;
72105;SDS011;59975;47.646;18.318;2023-05-07T00:23:30;17.17;;;9.27;;
72105;SDS011;59975;47.646;18.318;2023-05-07T00:25:56;16.30;;;8.73;;
72105;SDS011;59975;47.646;18.318;2023-05-07T00:28:21;20.97;;;10.87;;
72105;SDS011;59975;47.646;18.318;2023-05-07T00:30:47;22.00;;;11.93;;
72105;SDS011;59975;47.646;18.318;2023-05-07T00:33:12;19.97;;;11.17;;
72105;SDS011;59975;47.646;18.318;2023-05-07T00:35:38;21.83;;;11.37;;
72105;SDS011;59975;47.646;18.318;2023-05-07T00:38:03;21.13;;;12.07;;
72105;SDS011;59975;47.646;18.318;2023-05-07T00:40:29;18.98;;;11.50;;
72105;SDS011;59975;47.646;18.318;2023-05-07T00:42:54;25.57;;;12.47;;
72105;SDS011;59975;47.646;18.318;2023-05-07T00:45:27;19.63;;;11.88;;
72105;SDS011;59975;47.646;18.318;2023-05-07T00:47:57;18.83;;;12.10;;
72105;SDS011;59975;47.646;18.318;2023-05-07T00:50:24;25.17;;;12.48;;
72105;SDS011;59975;47.646;18.318;2023-05-07T00:52:51;25.83;;;12.53;;
72105;SDS011;59975;47.646;18.318;2023-05-07T00:55:16;22.65;;;13.25;;
72105;SDS011;59975;47.646;18.318;2023-05-07T00:57:42;22.02;;;12.73;;
72105;SDS011;59975;47.646;18.318;2023-05-07T01:00:09;21.40;;;12.93;;
72105;SDS011;59975;47.646;18.318;2023-05-07T01:02:40;25.13;;;11.70;;
72105;SDS011;59975;47.646;18.318;2023-05-07T01:05:07;19.67;;;11.95;;
72105;SDS011;59975;47.646;18.318;2023-05-07T01:07:34;22.25;;;11.77;;
72105;SDS011;59975;47.646;18.318;2023-05-07T01:10:01;19.25;;;11.05;;
72105;SDS011;59975;47.646;18.318;2023-05-07T01:12:28;20.83;;;11.70;;
72105;SDS011;59975;47.646;18.318;2023-05-07T01:14:56;20.23;;;11.40;;
72105;SDS011;59975;47.646;18.318;2023-05-07T01:17:22;18.52;;;11.23;;
72105;SDS011;59975;47.646;18.318;2023-05-07T01:19:48;19.85;;;10.68;;
72105;SDS011;59975;47.646;18.318;2023-05-07T01:22:15;19.07;;;10.70;;
72105;SDS011;59975;47.646;18.318;2023-05-07T01:24:43;22.67;;;10.20;;
72105;SDS011;59975;47.646;18.318;2023-05-07T01:27:09;15.88;;;10.00;;
72105;SDS011;59975;47.646;18.318;2023-05-07T01:29:34;18.27;;;10.83;;
72105;SDS011;59975;47.646;18.318;2023-05-07T01:32:00;21.73;;;10.38;;
72105;SDS011;59975;47.646;18.318;2023-05-07T01:34:30;17.77;;;9.87;;
72105;SDS011;59975;47.646;18.318;2023-05-07T01:36:58;15.98;;;10.20;;
72105;SDS011;59975;47.646;18.318;2023-05-07T01:39:25;13.20;;;9.10;;
72105;SDS011;59975;47.646;18.318;2023-05-07T01:41:53;17.48;;;9.38;;
72105;SDS011;59975;47.646;18.318;2023-05-07T01:44:21;16.00;;;9.73;;
72105;SDS011;59975;47.646;18.318;2023-05-07T01:46:46;16.53;;;9.57;;
72105;SDS011;59975;47.646;18.318;2023-05-07T01:49:13;14.05;;;8.85;;
72105;SDS011;59975;47.646;18.318;2023-05-07T01:51:39;14.60;;;8.38;;
72105;SDS011;59975;47.646;18.318;2023-05-07T01:54:05;14.57;;;9.20;;
72105;SDS011;59975;47.646;18.318;2023-05-07T01:56:31;14.90;;;9.70;;
72105;SDS011;59975;47.646;18.318;2023-05-07T01:58:57;12.85;;;8.75;;
72105;SDS011;59975;47.646;18.318;2023-05-07T02:01:22;12.47;;;8.87;;
72105;SDS011;59975;47.646;18.318;2023-05-07T02:03:48;16.88;;;9.48;;
72105;SDS011;59975;47.646;18.318;2023-05-07T02:06:14;18.13;;;8.98;;
72105;SDS011;59975;47.646;18.318;2023-05-07T02:08:40;17.17;;;8.80;;
72105;SDS011;59975;47.646;18.318;2023-05-07T02:11:05;17.33;;;9.90;;
72105;SDS011;59975;47.646;18.318;2023-05-07T02:13:32;15.48;;;8.70;;
72105;SDS011;59975;47.646;18.318;2023-05-07T02:15:58;16.25;;;9.32;;
72105;SDS011;59975;47.646;18.318;2023-05-07T02:18:24;17.52;;;10.27;;
72105;SDS011;59975;47.646;18.318;2023-05-07T02:20:49;15.67;;;9.87;;
72105;SDS011;59975;47.646;18.318;2023-05-07T02:23:15;17.27;;;10.07;;
72105;SDS011;59975;47.646;18.318;2023-05-07T02:25:40;17.10;;;9.73;;
72105;SDS011;59975;47.646;18.318;2023-05-07T02:28:06;15.80;;;10.03;;
72105;SDS011;59975;47.646;18.318;2023-05-07T02:30:32;17.30;;;9.52;;
72105;SDS011;59975;47.646;18.318;2023-05-07T02:32:58;15.77;;;9.40;;
72105;SDS011;59975;47.646;18.318;2023-05-07T02:35:24;17.43;;;9.23;;
72105;SDS011;59975;47.646;18.318;2023-05-07T02:37:50;15.00;;;9.43;;
72105;SDS011;59975;47.646;18.318;2023-05-07T02:40:15;16.13;;;9.87;;
72105;SDS011;59975;47.646;18.318;2023-05-07T02:42:41;17.42;;;9.75;;
72105;SDS011;59975;47.646;18.318;2023-05-07T02:45:07;18.90;;;9.63;;
72105;SDS011;59975;47.646;18.318;2023-05-07T02:47:33;19.52;;;10.63;;
72105;SDS011;59975;47.646;18.318;2023-05-07T02:49:58;18.07;;;10.70;;
72105;SDS011;59975;47.646;18.318;2023-05-07T02:52:24;16.53;;;9.57;;
72105;SDS011;59975;47.646;18.318;2023-05-07T02:54:49;18.38;;;9.90;;
72105;SDS011;59975;47.646;18.318;2023-05-07T02:57:15;16.17;;;10.97;;
72105;SDS011;59975;47.646;18.318;2023-05-07T02:59:41;17.27;;;10.00;;
72105;SDS011;59975;47.646;18.318;2023-05-07T03:02:07;15.20;;;10.50;;
72105;SDS011;59975;47.646;18.318;2023-05-07T03:04:32;15.82;;;9.57;;
72105;SDS011;59975;47.646;18.318;2023-05-07T03:06:58;13.93;;;9.47;;
72105;SDS011;59975;47.646;18.318;2023-05-07T03:09:23;16.63;;;8.93;;
72105;SDS011;59975;47.646;18.318;2023-05-07T03:11:49;19.65;;;10.15;;
72105;SDS011;59975;47.646;18.318;2023-05-07T03:14:15;16.83;;;10.17;;
72105;SDS011;59975;47.646;18.318;2023-05-07T03:16:40;17.08;;;9.77;;
72105;SDS011;59975;47.646;18.318;2023-05-07T03:19:06;17.57;;;10.40;;
72105;SDS011;59975;47.646;18.318;2023-05-07T03:21:31;14.57;;;9.80;;
72105;SDS011;59975;47.646;18.318;2023-05-07T03:23:58;15.07;;;9.68;;
72105;SDS011;59975;47.646;18.318;2023-05-07T03:26:24;18.25;;;9.07;;
72105;SDS011;59975;47.646;18.318;2023-05-07T03:28:50;17.00;;;9.30;;
72105;SDS011;59975;47.646;18.318;2023-05-07T03:31:16;16.25;;;9.02;;
72105;SDS011;59975;47.646;18.318;2023-05-07T03:33:52;13.47;;;7.97;;
72105;SDS011;59975;47.646;18.318;2023-05-07T03:36:21;14.80;;;9.35;;
72105;SDS011;59975;47.646;18.318;2023-05-07T03:38:47;15.70;;;9.10;;
72105;SDS011;59975;47.646;18.318;2023-05-07T03:41:13;18.40;;;9.38;;
72105;SDS011;59975;47.646;18.318;2023-05-07T03:43:39;15.57;;;9.13;;
72105;SDS011;59975;47.646;18.318;2023-05-07T03:46:04;15.02;;;9.32;;
72105;SDS011;59975;47.646;18.318;2023-05-07T03:48:30;16.23;;;9.93;;
72105;SDS011;59975;47.646;18.318;2023-05-07T03:50:56;14.93;;;9.90;;
72105;SDS011;59975;47.646;18.318;2023-05-07T03:53:22;15.52;;;9.60;;
72105;SDS011;59975;47.646;18.318;2023-05-07T03:55:48;14.53;;;9.13;;
72105;SDS011;59975;47.646;18.318;2023-05-07T03:58:14;15.20;;;9.93;;
72105;SDS011;59975;47.646;18.318;2023-05-07T04:00:40;16.05;;;9.80;;
72105;SDS011;59975;47.646;18.318;2023-05-07T04:03:06;18.07;;;11.07;;
72105;SDS011;59975;47.646;18.318;2023-05-07T04:05:31;17.58;;;10.15;;
72105;SDS011;59975;47.646;18.318;2023-05-07T04:07:57;14.97;;;9.83;;
72105;SDS011;59975;47.646;18.318;2023-05-07T04:10:24;15.85;;;10.02;;
72105;SDS011;59975;47.646;18.318;2023-05-07T04:12:49;20.37;;;11.90;;
72105;SDS011;59975;47.646;18.318;2023-05-07T04:15:15;14.93;;;10.40;;
72105;SDS011;59975;47.646;18.318;2023-05-07T04:17:41;17.97;;;10.43;;
72105;SDS011;59975;47.646;18.318;2023-05-07T04:20:08;18.75;;;11.13;;
72105;SDS011;59975;47.646;18.318;2023-05-07T04:22:34;16.57;;;10.80;;
72105;SDS011;59975;47.646;18.318;2023-05-07T04:24:59;17.05;;;10.15;;
72105;SDS011;59975;47.646;18.318;2023-05-07T04:27:25;16.63;;;9.23;;
72105;SDS011;59975;47.646;18.318;2023-05-07T04:29:51;19.27;;;10.10;;
72105;SDS011;59975;47.646;18.318;2023-05-07T04:32:20;17.63;;;10.32;;
72105;SDS011;59975;47.646;18.318;2023-05-07T04:34:46;16.43;;;10.30;;
72105;SDS011;59975;47.646;18.318;2023-05-07T04:37:11;20.50;;;11.03;;
72105;SDS011;59975;47.646;18.318;2023-05-07T04:39:37;20.23;;;11.43;;
72105;SDS011;59975;47.646;18.318;2023-05-07T04:42:03;21.43;;;11.73;;
72105;SDS011;59975;47.646;18.318;2023-05-07T04:44:28;23.03;;;12.17;;
72105;SDS011;59975;47.646;18.318;2023-05-07T04:46:56;20.67;;;12.63;;
72105;SDS011;59975;47.646;18.318;2023-05-07T04:49:21;18.65;;;11.25;;
72105;SDS011;59975;47.646;18.318;2023-05-07T04:51:47;20.83;;;11.67;;
72105;SDS011;59975;47.646;18.318;2023-05-07T04:54:12;16.97;;;10.97;;
72105;SDS011;59975;47.646;18.318;2023-05-07T04:56:38;22.17;;;11.40;;
72105;SDS011;59975;47.646;18.318;2023-05-07T04:59:03;17.77;;;10.40;;
72105;SDS011;59975;47.646;18.318;2023-05-07T05:01:29;18.52;;;10.77;;
72105;SDS011;59975;47.646;18.318;2023-05-07T05:03:55;17.63;;;10.97;;
72105;SDS011;59975;47.646;18.318;2023-05-07T05:06:20;16.37;;;9.07;;
72105;SDS011;59975;47.646;18.318;2023-05-07T05:08:46;16.67;;;8.83;;
72105;SDS011;59975;47.646;18.318;2023-05-07T05:11:11;14.75;;;8.98;;
72105;SDS011;59975;47.646;18.318;2023-05-07T05:13:37;15.30;;;8.67;;
72105;SDS011;59975;47.646;18.318;2023-05-07T05:16:02;14.17;;;8.80;;
72105;SDS011;59975;47.646;18.318;2023-05-07T05:18:28;14.85;;;8.85;;
72105;SDS011;59975;47.646;18.318;2023-05-07T05:20:53;13.03;;;8.73;;
72105;SDS011;59975;47.646;18.318;2023-05-07T05:23:19;13.27;;;7.90;;
72105;SDS011;59975;47.646;18.318;2023-05-07T05:25:45;17.53;;;8.17;;
72105;SDS011;59975;47.646;18.318;2023-05-07T05:28:10;14.30;;;8.27;;
72105;SDS011;59975;47.646;18.318;2023-05-07T05:30:36;15.18;;;7.15;;
72105;SDS011;59975;47.646;18.318;2023-05-07T05:33:02;12.97;;;7.70;;
72105;SDS011;59975;47.646;18.318;2023-05-07T05:35:27;12.27;;;7.65;;
72105;SDS011;59975;47.646;18.318;2023-05-07T05:37:53;13.43;;;7.93;;
72105;SDS011;59975;47.646;18.318;2023-05-07T05:40:18;14.77;;;8.63;;
72105;SDS011;59975;47.646;18.318;2023-05-07T05:42:44;13.52;;;8.43;;
72105;SDS011;59975;47.646;18.318;2023-05-07T05:45:10;11.07;;;8.37;;
72105;SDS011;59975;47.646;18.318;2023-05-07T05:47:35;18.17;;;10.43;;
72105;SDS011;59975;47.646;18.318;2023-05-07T05:50:01;14.50;;;8.60;;
72105;SDS011;59975;47.646;18.318;2023-05-07T05:52:26;20.60;;;9.93;;
72105;SDS011;59975;47.646;18.318;2023-05-07T05:54:53;15.70;;;9.63;;
72105;SDS011;59975;47.646;18.318;2023-05-07T05:57:18;15.00;;;9.73;;
72105;SDS011;59975;47.646;18.318;2023-05-07T05:59:44;15.52;;;9.57;;
72105;SDS011;59975;47.646;18.318;2023-05-07T06:02:10;21.27;;;11.30;;
72105;SDS011;59975;47.646;18.318;2023-05-07T06:04:35;16.70;;;10.20;;
72105;SDS011;59975;47.646;18.318;2023-05-07T06:07:01;14.50;;;10.10;;
72105;SDS011;59975;47.646;18.318;2023-05-07T06:09:26;15.97;;;9.63;;
72105;SDS011;59975;47.646;18.318;2023-05-07T06:11:52;15.68;;;10.13;;
72105;SDS011;59975;47.646;18.318;2023-05-07T06:14:17;17.30;;;10.37;;
72105;SDS011;59975;47.646;18.318;2023-05-07T06:16:43;13.47;;;9.90;;
72105;SDS011;59975;47.646;18.318;2023-05-07T06:19:09;14.07;;;9.52;;
72105;SDS011;59975;47.646;18.318;2023-05-07T06:21:34;15.10;;;10.00;;
72105;SDS011;59975;47.646;18.318;2023-05-07T06:24:00;14.80;;;10.00;;
72105;SDS011;59975;47.646;18.318;2023-05-07T06:26:25;14.43;;;9.97;;
72105;SDS011;59975;47.646;18.318;2023-05-07T06:28:51;14.07;;;9.38;;
72105;SDS011;59975;47.646;18.318;2023-05-07T06:31:17;14.93;;;10.13;;
72105;SDS011;59975;47.646;18.318;2023-05-07T06:33:45;16.48;;;10.65;;
72105;SDS011;59975;47.646;18.318;2023-05-07T06:36:11;15.07;;;10.33;;
72105;SDS011;59975;47.646;18.318;2023-05-07T06:38:45;16.70;;;10.77;;
72105;SDS011;59975;47.646;18.318;2023-05-07T06:41:10;16.20;;;9.83;;
72105;SDS011;59975;47.646;18.318;2023-05-07T06:43:36;18.00;;;11.60;;
72105;SDS011;59975;47.646;18.318;2023-05-07T06:46:01;14.83;;;10.60;;
72105;SDS011;59975;47.646;18.318;2023-05-07T06:48:27;17.43;;;11.07;;
72105;SDS011;59975;47.646;18.318;2023-05-07T06:50:52;18.73;;;10.98;;
72105;SDS011;59975;47.646;18.318;2023-05-07T06:53:20;17.40;;;11.67;;
72105;SDS011;59975;47.646;18.318;2023-05-07T06:55:45;17.42;;;12.02;;
72105;SDS011;59975;47.646;18.318;2023-05-07T06:58:11;18.67;;;12.00;;
72105;SDS011;59975;47.646;18.318;2023-05-07T07:00:36;19.50;;;12.60;;
72105;SDS011;59975;47.646;18.318;2023-05-07T07:03:02;19.17;;;12.82;;
72105;SDS011;59975;47.646;18.318;2023-05-07T07:05:27;21.10;;;12.60;;
72105;SDS011;59975;47.646;18.318;2023-05-07T07:07:53;23.20;;;12.97;;
72105;SDS011;59975;47.646;18.318;2023-05-07T07:10:22;21.63;;;14.18;;
72105;SDS011;59975;47.646;18.318;2023-05-07T07:12:48;21.60;;;12.67;;
72105;SDS011;59975;47.646;18.318;2023-05-07T07:15:14;21.95;;;14.05;;
72105;SDS011;59975;47.646;18.318;2023-05-07T07:17:40;23.10;;;14.05;;
72105;SDS011;59975;47.646;18.318;2023-05-07T07:20:06;20.63;;;12.77;;
72105;SDS011;59975;47.646;18.318;2023-05-07T07:22:32;20.67;;;13.98;;
72105;SDS011;59975;47.646;18.318;2023-05-07T07:24:57;23.67;;;14.10;;
72105;SDS011;59975;47.646;18.318;2023-05-07T07:27:23;19.33;;;12.82;;
72105;SDS011;59975;47.646;18.318;2023-05-07T07:29:48;20.80;;;14.23;;
72105;SDS011;59975;47.646;18.318;2023-05-07T07:32:14;23.50;;;15.57;;
72105;SDS011;59975;47.646;18.318;2023-05-07T07:34:39;23.40;;;16.80;;
72105;SDS011;59975;47.646;18.318;2023-05-07T07:37:05;23.00;;;15.97;;
72105;SDS011;59975;47.646;18.318;2023-05-07T07:39:34;23.25;;;16.33;;
72105;SDS011;59975;47.646;18.318;2023-05-07T07:42:02;26.65;;;18.20;;
72105;SDS011;59975;47.646;18.318;2023-05-07T07:44:28;27.57;;;17.63;;
72105;SDS011;59975;47.646;18.318;2023-05-07T07:46:53;26.67;;;17.73;;
72105;SDS011;59975;47.646;18.318;2023-05-07T07:49:19;26.03;;;17.90;;
72105;SDS011;59975;47.646;18.318;2023-05-07T07:51:44;27.83;;;18.07;;
72105;SDS011;59975;47.646;18.318;2023-05-07T07:54:10;27.83;;;18.33;;
72105;SDS011;59975;47.646;18.318;2023-05-07T07:56:36;29.97;;;18.80;;
72105;SDS011;59975;47.646;18.318;2023-05-07T07:59:01;33.60;;;19.53;;
72105;SDS011;59975;47.646;18.318;2023-05-07T08:01:33;27.80;;;18.15;;
72105;SDS011;59975;47.646;18.318;2023-05-07T08:04:00;32.20;;;20.10;;
72105;SDS011;59975;47.646;18.318;2023-05-07T08:06:28;30.65;;;19.42;;
72105;SDS011;59975;47.646;18.318;2023-05-07T08:08:53;31.37;;;18.33;;
72105;SDS011;59975;47.646;18.318;2023-05-07T08:11:19;28.83;;;19.37;;
72105;SDS011;59975;47.646;18.318;2023-05-07T08:13:45;28.02;;;16.85;;
72105;SDS011;59975;47.646;18.318;2023-05-07T08:16:11;26.58;;;17.25;;
72105;SDS011;59975;47.646;18.318;2023-05-07T08:18:36;23.97;;;16.57;;
72105;SDS011;59975;47.646;18.318;2023-05-07T08:21:02;24.83;;;17.00;;
72105;SDS011;59975;47.646;18.318;2023-05-07T08:23:27;25.23;;;17.20;;
72105;SDS011;59975;47.646;18.318;2023-05-07T08:25:53;23.87;;;17.37;;
72105;SDS011;59975;47.646;18.318;2023-05-07T08:28:18;27.50;;;19.23;;
72105;SDS011;59975;47.646;18.318;2023-05-07T08:30:51;26.10;;;17.52;;
72105;SDS011;59975;47.646;18.318;2023-05-07T08:33:16;25.20;;;18.60;;
72105;SDS011;59975;47.646;18.318;2023-05-07T08:35:42;27.07;;;19.37;;
72105;SDS011;59975;47.646;18.318;2023-05-07T08:38:07;28.13;;;20.40;;
72105;SDS011;59975;47.646;18.318;2023-05-07T08:40:37;26.08;;;19.52;;
72105;SDS011;59975;47.646;18.318;2023-05-07T08:43:05;24.07;;;17.40;;
72105;SDS011;59975;47.646;18.318;2023-05-07T08:45:32;24.35;;;18.67;;
72105;SDS011;59975;47.646;18.318;2023-05-07T08:47:59;27.40;;;17.67;;
72105;SDS011;59975;47.646;18.318;2023-05-07T08:50:28;25.67;;;18.25;;
72105;SDS011;59975;47.646;18.318;2023-05-07T08:52:54;23.25;;;16.85;;
72105;SDS011;59975;47.646;18.318;2023-05-07T08:55:22;24.33;;;17.20;;
72105;SDS011;59975;47.646;18.318;2023-05-07T08:57:48;21.95;;;15.05;;
72105;SDS011;59975;47.646;18.318;2023-05-07T09:00:15;20.77;;;14.93;;
72105;SDS011;59975;47.646;18.318;2023-05-07T09:02:40;20.08;;;14.10;;
72105;SDS011;59975;47.646;18.318;2023-05-07T09:05:06;17.23;;;13.37;;
72105;SDS011;59975;47.646;18.318;2023-05-07T09:07:32;21.25;;;14.10;;
72105;SDS011;59975;47.646;18.318;2023-05-07T09:09:58;19.17;;;14.43;;
72105;SDS011;59975;47.646;18.318;2023-05-07T09:12:24;19.20;;;14.32;;
72105;SDS011;59975;47.646;18.318;2023-05-07T09:14:50;19.13;;;14.60;;
72105;SDS011;59975;47.646;18.318;2023-05-07T09:17:16;22.90;;;13.10;;
72105;SDS011;59975;47.646;18.318;2023-05-07T09:19:42;15.77;;;12.07;;
72105;SDS011;59975;47.646;18.318;2023-05-07T09:22:09;16.57;;;11.43;;
72105;SDS011;59975;47.646;18.318;2023-05-07T09:24:35;14.45;;;11.55;;
72105;SDS011;59975;47.646;18.318;2023-05-07T09:27:03;14.98;;;11.27;;
72105;SDS011;59975;47.646;18.318;2023-05-07T09:29:29;14.97;;;11.00;;
72105;SDS011;59975;47.646;18.318;2023-05-07T09:32:00;16.23;;;11.40;;
72105;SDS011;59975;47.646;18.318;2023-05-07T09:34:30;15.32;;;11.63;;
72105;SDS011;59975;47.646;18.318;2023-05-07T09:36:55;14.40;;;11.23;;
72105;SDS011;59975;47.646;18.318;2023-05-07T09:39:23;13.77;;;11.50;;
72105;SDS011;59975;47.646;18.318;2023-05-07T09:41:49;15.43;;;10.88;;
72105;SDS011;59975;47.646;18.318;2023-05-07T09:44:16;14.70;;;10.70;;
72105;SDS011;59975;47.646;18.318;2023-05-07T09:46:43;15.13;;;11.30;;
72105;SDS011;59975;47.646;18.318;2023-05-07T09:49:16;14.87;;;10.97;;
72105;SDS011;59975;47.646;18.318;2023-05-07T09:51:50;13.70;;;10.30;;
72105;SDS011;59975;47.646;18.318;2023-05-07T09:54:17;12.95;;;10.50;;
72105;SDS011;59975;47.646;18.318;2023-05-07T09:56:44;12.88;;;10.70;;
72105;SDS011;59975;47.646;18.318;2023-05-07T09:59:11;14.32;;;10.35;;
72105;SDS011;59975;47.646;18.318;2023-05-07T10:01:38;12.20;;;9.90;;
72105;SDS011;59975;47.646;18.318;2023-05-07T10:04:06;12.48;;;10.50;;
72105;SDS011;59975;47.646;18.318;2023-05-07T10:06:34;12.60;;;9.98;;
72105;SDS011;59975;47.646;18.318;2023-05-07T10:09:00;13.18;;;10.25;;
72105;SDS011;59975;47.646;18.318;2023-05-07T10:11:25;14.50;;;11.47;;
72105;SDS011;59975;47.646;18.318;2023-05-07T10:13:52;12.40;;;9.63;;
72105;SDS011;59975;47.646;18.318;2023-05-07T10:16:18;12.02;;;10.02;;
72105;SDS011;59975;47.646;18.318;2023-05-07T10:18:44;12.70;;;10.73;;
72105;SDS011;59975;47.646;18.318;2023-05-07T10:21:11;12.57;;;9.87;;
72105;SDS011;59975;47.646;18.318;2023-05-07T10:23:56;12.93;;;10.82;;
72105;SDS011;59975;47.646;18.318;2023-05-07T10:26:24;14.10;;;10.50;;
72105;SDS011;59975;47.646;18.318;2023-05-07T10:29:05;9.82;;;7.57;;
72105;SDS011;59975;47.646;18.318;2023-05-07T10:34:39;13.90;;;9.87;;
72105;SDS011;59975;47.646;18.318;2023-05-07T10:37:08;11.50;;;8.05;;
72105;SDS011;59975;47.646;18.318;2023-05-07T10:39:35;7.18;;;5.18;;
72105;SDS011;59975;47.646;18.318;2023-05-07T10:42:08;6.32;;;4.72;;
72105;SDS011;59975;47.646;18.318;2023-05-07T10:44:34;10.43;;;5.50;;
72105;SDS011;59975;47.646;18.318;2023-05-07T10:52:16;7.28;;;5.00;;
72105;SDS011;59975;47.646;18.318;2023-05-07T10:54:42;7.43;;;4.50;;
72105;SDS011;59975;47.646;18.318;2023-05-07T10:59:53;6.13;;;4.50;;
72105;SDS011;59975;47.646;18.318;2023-05-07T11:02:19;7.88;;;5.18;;
72105;SDS011;59975;47.646;18.318;2023-05-07T11:04:44;9.33;;;5.17;;
72105;SDS011;59975;47.646;18.318;2023-05-07T11:17:30;10.13;;;4.37;;
72105;SDS011;59975;47.646;18.318;2023-05-07T11:19:57;5.25;;;3.55;;
72105;SDS011;59975;47.646;18.318;2023-05-07T11:25:04;4.90;;;3.38;;
72105;SDS011;59975;47.646;18.318;2023-05-07T11:27:31;5.43;;;4.10;;
72105;SDS011;59975;47.646;18.318;2023-05-07T11:29:57;5.95;;;3.70;;
72105;SDS011;59975;47.646;18.318;2023-05-07T11:32:23;7.55;;;4.65;;
72105;SDS011;59975;47.646;18.318;2023-05-07T11:34:56;5.83;;;3.83;;
72105;SDS011;59975;47.646;18.318;2023-05-07T11:37:24;5.10;;;3.00;;
72105;SDS011;59975;47.646;18.318;2023-05-07T11:40:13;7.53;;;4.55;;
72105;SDS011;59975;47.646;18.318;2023-05-07T11:42:39;8.25;;;5.68;;
72105;SDS011;59975;47.646;18.318;2023-05-07T11:45:07;7.82;;;5.07;;
72105;SDS011;59975;47.646;18.318;2023-05-07T11:47:34;10.93;;;6.60;;
72105;SDS011;59975;47.646;18.318;2023-05-07T11:50:06;8.30;;;6.30;;
72105;SDS011;59975;47.646;18.318;2023-05-07T11:52:33;10.73;;;6.22;;
72105;SDS011;59975;47.646;18.318;2023-05-07T11:54:59;8.70;;;5.53;;
72105;SDS011;59975;47.646;18.318;2023-05-07T11:57:26;9.55;;;5.75;;
72105;SDS011;59975;47.646;18.318;2023-05-07T11:59:56;8.27;;;5.70;;
72105;SDS011;59975;47.646;18.318;2023-05-07T12:02:23;7.70;;;5.55;;
72105;SDS011;59975;47.646;18.318;2023-05-07T12:04:50;16.77;;;8.48;;
72105;SDS011;59975;47.646;18.318;2023-05-07T12:07:16;12.30;;;7.45;;
72105;SDS011;59975;47.646;18.318;2023-05-07T12:09:43;11.05;;;6.93;;
72105;SDS011;59975;47.646;18.318;2023-05-07T12:12:10;10.67;;;7.20;;
72105;SDS011;59975;47.646;18.318;2023-05-07T12:14:39;11.43;;;7.55;;
72105;SDS011;59975;47.646;18.318;2023-05-07T12:17:06;11.60;;;7.30;;
72105;SDS011;59975;47.646;18.318;2023-05-07T12:19:33;11.13;;;7.40;;
72105;SDS011;59975;47.646;18.318;2023-05-07T12:21:59;10.60;;;6.35;;
72105;SDS011;59975;47.646;18.318;2023-05-07T12:24:26;6.75;;;4.72;;
72105;SDS011;59975;47.646;18.318;2023-05-07T12:26:51;9.70;;;5.17;;
72105;SDS011;59975;47.646;18.318;2023-05-07T12:29:20;10.23;;;5.65;;
72105;SDS011;59975;47.646;18.318;2023-05-07T12:31:46;8.95;;;4.82;;
72105;SDS011;59975;47.646;18.318;2023-05-07T12:34:12;7.83;;;5.13;;
72105;SDS011;59975;47.646;18.318;2023-05-07T12:36:38;6.80;;;4.53;;
72105;SDS011;59975;47.646;18.318;2023-05-07T12:39:07;7.97;;;4.85;;
72105;SDS011;59975;47.646;18.318;2023-05-07T12:44:24;6.65;;;4.80;;
72105;SDS011;59975;47.646;18.318;2023-05-07T12:46:50;8.15;;;4.90;;
72105;SDS011;59975;47.646;18.318;2023-05-07T12:49:17;7.68;;;4.50;;
72105;SDS011;59975;47.646;18.318;2023-05-07T12:51:46;6.13;;;4.22;;
72105;SDS011;59975;47.646;18.318;2023-05-07T12:54:13;7.03;;;4.00;;
72105;SDS011;59975;47.646;18.318;2023-05-07T12:56:59;5.90;;;4.28;;
72105;SDS011;59975;47.646;18.318;2023-05-07T12:59:32;6.55;;;4.00;;
72105;SDS011;59975;47.646;18.318;2023-05-07T13:02:05;5.65;;;3.58;;
72105;SDS011;59975;47.646;18.318;2023-05-07T13:04:31;5.25;;;3.45;;
72105;SDS011;59975;47.646;18.318;2023-05-07T13:06:57;5.37;;;3.53;;
72105;SDS011;59975;47.646;18.318;2023-05-07T13:09:23;4.55;;;3.33;;
72105;SDS011;59975;47.646;18.318;2023-05-07T13:11:49;7.00;;;3.23;;
72105;SDS011;59975;47.646;18.318;2023-05-07T13:14:14;5.10;;;3.40;;
72105;SDS011;59975;47.646;18.318;2023-05-07T13:16:40;5.37;;;3.70;;
72105;SDS011;59975;47.646;18.318;2023-05-07T13:19:05;4.77;;;3.30;;
72105;SDS011;59975;47.646;18.318;2023-05-07T13:21:31;5.40;;;3.60;;
72105;SDS011;59975;47.646;18.318;2023-05-07T13:23:57;5.25;;;3.65;;
72105;SDS011;59975;47.646;18.318;2023-05-07T13:26:23;7.23;;;3.20;;
72105;SDS011;59975;47.646;18.318;2023-05-07T13:28:50;6.10;;;3.58;;
72105;SDS011;59975;47.646;18.318;2023-05-07T13:31:16;5.35;;;3.05;;
72105;SDS011;59975;47.646;18.318;2023-05-07T13:33:42;5.47;;;3.78;;
72105;SDS011;59975;47.646;18.318;2023-05-07T13:36:08;6.50;;;3.50;;
72105;SDS011;59975;47.646;18.318;2023-05-07T13:38:34;6.25;;;2.72;;
72105;SDS011;59975;47.646;18.318;2023-05-07T13:41:00;5.23;;;3.60;;
72105;SDS011;59975;47.646;18.318;2023-05-07T13:43:25;4.88;;;2.45;;
72105;SDS011;59975;47.646;18.318;2023-05-07T13:45:51;12.20;;;3.60;;
72105;SDS011;59975;47.646;18.318;2023-05-07T13:48:16;6.60;;;3.67;;
72105;SDS011;59975;47.646;18.318;2023-05-07T13:50:42;4.87;;;3.53;;
72105;SDS011;59975;47.646;18.318;2023-05-07T13:53:07;6.20;;;4.43;;
72105;SDS011;59975;47.646;18.318;2023-05-07T13:55:33;5.35;;;3.60;;
72105;SDS011;59975;47.646;18.318;2023-05-07T13:57:59;6.93;;;3.97;;
72105;SDS011;59975;47.646;18.318;2023-05-07T14:00:27;7.07;;;4.43;;
72105;SDS011;59975;47.646;18.318;2023-05-07T14:02:53;8.38;;;3.72;;
72105;SDS011;59975;47.646;18.318;2023-05-07T14:05:19;6.78;;;3.97;;
72105;SDS011;59975;47.646;18.318;2023-05-07T14:07:45;5.90;;;4.10;;
72105;SDS011;59975;47.646;18.318;2023-05-07T14:10:11;6.22;;;3.88;;
72105;SDS011;59975;47.646;18.318;2023-05-07T14:12:38;5.13;;;3.00;;
72105;SDS011;59975;47.646;18.318;2023-05-07T14:15:03;6.43;;;3.53;;
72105;SDS011;59975;47.646;18.318;2023-05-07T14:17:29;6.22;;;3.92;;
72105;SDS011;59975;47.646;18.318;2023-05-07T14:19:55;6.93;;;3.50;;
72105;SDS011;59975;47.646;18.318;2023-05-07T14:22:21;5.75;;;3.90;;
72105;SDS011;59975;47.646;18.318;2023-05-07T14:24:50;6.50;;;3.87;;
72105;SDS011;59975;47.646;18.318;2023-05-07T14:27:16;10.77;;;3.60;;
72105;SDS011;59975;47.646;18.318;2023-05-07T14:29:41;6.30;;;3.47;;
72105;SDS011;59975;47.646;18.318;2023-05-07T14:32:07;5.03;;;3.00;;
72105;SDS011;59975;47.646;18.318;2023-05-07T14:34:33;5.07;;;3.15;;
72105;SDS011;59975;47.646;18.318;2023-05-07T14:36:59;4.20;;;3.13;;
72105;SDS011;59975;47.646;18.318;2023-05-07T14:39:25;6.55;;;3.30;;
72105;SDS011;59975;47.646;18.318;2023-05-07T14:41:51;4.93;;;3.10;;